Terminal Aerodrome Forecast
Issued by NWS Tulsa, OK

Home | Current Version | Previous Version | Text Only | Print | Product List | Glossary On
Versions: 1 2 3 4 5 6 7 8 9 10 11 12 13 14 15 16
000
FTUS44 KTSA 072338
TAFTUL
TAF
KTUL 072338Z 0800/0824 36007KT 3SM -RA BR OVC015
      TEMPO 0802/0806 2SM RA BR OVC008
     FM080600 09007KT 2SM RA BR OVC007
     FM081500 10007KT 3SM -RA OVC008
     FM082000 15005KT P6SM OVC015=

USA.gov is the U.S. government's official web portal to all federal, state and local government web resources and services.